Browns, Illinois
Current Conditions -  °F | °C
As of 10:55 PM on Monday 22 Dec 2014 (Local Time) from KAJG Reporting Station
Overcast Overcast  
Wind Chill: 11°   Ceiling: 900
Heat Index: 11°   Visibility: 7mi
Dew Point:   Wind: 13mph
Humidity: 88%   Direction: 170°S
Pressure: 29.62"   Gusts: NA
Location:  38.38°N, 87.98°W
Report Text: KAJG 230455Z AUTO 17011KT 7SM BKN009 OVC015 11/09 A2962 RMK AO2
Loading
Personal Weather Stations






























Interactive Weather Map New forecast layout! Learn more

10-Day Weather Forecast

Advertisements
Track Severe Weather on mobile